sensor_id;sensor_type;location;lat;lon;timestamp;temperature;humidity
50758;DHT22;36732;47.980;11.652;2022-12-20T00:01:07;4.80;69.60
50758;DHT22;36732;47.980;11.652;2022-12-20T00:03:41;4.80;69.70
50758;DHT22;36732;47.980;11.652;2022-12-20T00:06:07;4.80;69.60
50758;DHT22;36732;47.980;11.652;2022-12-20T00:08:34;4.80;69.70
50758;DHT22;36732;47.980;11.652;2022-12-20T00:11:02;4.80;69.70
50758;DHT22;36732;47.980;11.652;2022-12-20T00:13:29;4.80;69.70
50758;DHT22;36732;47.980;11.652;2022-12-20T00:16:10;4.80;69.70
50758;DHT22;36732;47.980;11.652;2022-12-20T00:18:38;4.80;69.80
50758;DHT22;36732;47.980;11.652;2022-12-20T00:21:07;4.80;69.60
50758;DHT22;36732;47.980;11.652;2022-12-20T00:23:35;4.80;69.70
50758;DHT22;36732;47.980;11.652;2022-12-20T00:26:03;4.80;69.70
50758;DHT22;36732;47.980;11.652;2022-12-20T00:28:31;4.80;69.70
50758;DHT22;36732;47.980;11.652;2022-12-20T00:30:58;4.80;69.70
50758;DHT22;36732;47.980;11.652;2022-12-20T00:33:23;4.80;69.70
50758;DHT22;36732;47.980;11.652;2022-12-20T00:35:50;4.80;69.80
50758;DHT22;36732;47.980;11.652;2022-12-20T00:38:15;4.80;69.80
50758;DHT22;36732;47.980;11.652;2022-12-20T00:40:41;4.80;69.80
50758;DHT22;36732;47.980;11.652;2022-12-20T00:43:07;4.80;69.80
50758;DHT22;36732;47.980;11.652;2022-12-20T00:45:33;4.80;69.80
50758;DHT22;36732;47.980;11.652;2022-12-20T00:47:58;4.80;69.80
50758;DHT22;36732;47.980;11.652;2022-12-20T00:50:24;4.80;69.80
50758;DHT22;36732;47.980;11.652;2022-12-20T00:52:50;4.80;69.80
50758;DHT22;36732;47.980;11.652;2022-12-20T00:55:15;4.80;69.80
50758;DHT22;36732;47.980;11.652;2022-12-20T00:57:41;4.80;69.80
50758;DHT22;36732;47.980;11.652;2022-12-20T01:00:07;4.80;69.80
50758;DHT22;36732;47.980;11.652;2022-12-20T01:02:33;4.80;69.70
50758;DHT22;36732;47.980;11.652;2022-12-20T01:04:59;4.80;69.80
50758;DHT22;36732;47.980;11.652;2022-12-20T01:07:25;4.80;69.70
50758;DHT22;36732;47.980;11.652;2022-12-20T01:09:51;4.80;69.80
50758;DHT22;36732;47.980;11.652;2022-12-20T01:12:16;4.80;69.80
50758;DHT22;36732;47.980;11.652;2022-12-20T01:14:42;4.80;69.70
50758;DHT22;36732;47.980;11.652;2022-12-20T01:17:08;4.80;69.80
50758;DHT22;36732;47.980;11.652;2022-12-20T01:19:34;4.80;69.80
50758;DHT22;36732;47.980;11.652;2022-12-20T01:22:00;4.80;69.80
50758;DHT22;36732;47.980;11.652;2022-12-20T01:24:26;4.80;69.80
50758;DHT22;36732;47.980;11.652;2022-12-20T01:26:52;4.80;69.80
50758;DHT22;36732;47.980;11.652;2022-12-20T01:29:17;4.80;69.90
50758;DHT22;36732;47.980;11.652;2022-12-20T01:31:43;4.80;70.50
50758;DHT22;36732;47.980;11.652;2022-12-20T01:34:09;4.80;69.90
50758;DHT22;36732;47.980;11.652;2022-12-20T01:36:36;4.80;69.90
50758;DHT22;36732;47.980;11.652;2022-12-20T01:41:31;4.80;69.90
50758;DHT22;36732;47.980;11.652;2022-12-20T01:44:01;4.80;69.80
50758;DHT22;36732;47.980;11.652;2022-12-20T01:46:33;4.90;69.90
50758;DHT22;36732;47.980;11.652;2022-12-20T01:54:44;4.90;69.80
50758;DHT22;36732;47.980;11.652;2022-12-20T01:57:15;4.90;69.70
50758;DHT22;36732;47.980;11.652;2022-12-20T01:59:45;4.90;69.70
50758;DHT22;36732;47.980;11.652;2022-12-20T02:02:12;4.90;69.70
50758;DHT22;36732;47.980;11.652;2022-12-20T02:04:38;4.90;69.70
50758;DHT22;36732;47.980;11.652;2022-12-20T02:07:05;4.90;69.70
50758;DHT22;36732;47.980;11.652;2022-12-20T02:09:34;4.90;69.70
50758;DHT22;36732;47.980;11.652;2022-12-20T02:12:19;4.90;70.20
50758;DHT22;36732;47.980;11.652;2022-12-20T02:14:58;4.80;69.70
50758;DHT22;36732;47.980;11.652;2022-12-20T02:26:02;4.80;69.70
50758;DHT22;36732;47.980;11.652;2022-12-20T02:31:42;4.80;69.80
50758;DHT22;36732;47.980;11.652;2022-12-20T02:34:12;4.80;69.60
50758;DHT22;36732;47.980;11.652;2022-12-20T02:36:39;4.90;69.70
50758;DHT22;36732;47.980;11.652;2022-12-20T02:39:05;4.80;69.60
50758;DHT22;36732;47.980;11.652;2022-12-20T02:41:42;4.80;69.60
50758;DHT22;36732;47.980;11.652;2022-12-20T02:44:14;4.90;69.90
50758;DHT22;36732;47.980;11.652;2022-12-20T02:47:02;4.90;70.00
50758;DHT22;36732;47.980;11.652;2022-12-20T02:49:33;4.90;69.80
50758;DHT22;36732;47.980;11.652;2022-12-20T02:52:03;4.90;69.80
50758;DHT22;36732;47.980;11.652;2022-12-20T02:54:30;4.90;69.80
50758;DHT22;36732;47.980;11.652;2022-12-20T02:57:03;4.90;69.80
50758;DHT22;36732;47.980;11.652;2022-12-20T02:59:38;4.90;69.90
50758;DHT22;36732;47.980;11.652;2022-12-20T03:02:07;4.90;69.70
50758;DHT22;36732;47.980;11.652;2022-12-20T03:04:36;4.90;69.70
50758;DHT22;36732;47.980;11.652;2022-12-20T03:07:10;4.90;69.80
50758;DHT22;36732;47.980;11.652;2022-12-20T03:09:39;4.90;69.80
50758;DHT22;36732;47.980;11.652;2022-12-20T03:12:08;4.90;69.80
50758;DHT22;36732;47.980;11.652;2022-12-20T03:14:36;4.90;69.80
50758;DHT22;36732;47.980;11.652;2022-12-20T03:17:02;4.90;69.70
50758;DHT22;36732;47.980;11.652;2022-12-20T03:19:29;4.90;69.80
50758;DHT22;36732;47.980;11.652;2022-12-20T03:21:55;4.90;69.90
50758;DHT22;36732;47.980;11.652;2022-12-20T03:24:20;4.90;69.90
50758;DHT22;36732;47.980;11.652;2022-12-20T03:26:46;4.90;69.90
50758;DHT22;36732;47.980;11.652;2022-12-20T03:29:12;4.90;69.90
50758;DHT22;36732;47.980;11.652;2022-12-20T03:31:38;4.90;70.00
50758;DHT22;36732;47.980;11.652;2022-12-20T03:34:04;4.90;70.00
50758;DHT22;36732;47.980;11.652;2022-12-20T03:36:30;4.90;70.00
50758;DHT22;36732;47.980;11.652;2022-12-20T03:38:56;4.90;69.90
50758;DHT22;36732;47.980;11.652;2022-12-20T03:41:22;4.90;69.90
50758;DHT22;36732;47.980;11.652;2022-12-20T03:43:48;4.90;69.90
50758;DHT22;36732;47.980;11.652;2022-12-20T03:46:15;4.90;70.00
50758;DHT22;36732;47.980;11.652;2022-12-20T03:48:41;5.00;70.00
50758;DHT22;36732;47.980;11.652;2022-12-20T03:51:07;4.90;69.90
50758;DHT22;36732;47.980;11.652;2022-12-20T03:53:32;4.90;69.90
50758;DHT22;36732;47.980;11.652;2022-12-20T03:55:58;4.90;69.90
50758;DHT22;36732;47.980;11.652;2022-12-20T03:58:24;5.00;69.90
50758;DHT22;36732;47.980;11.652;2022-12-20T04:00:50;4.90;69.90
50758;DHT22;36732;47.980;11.652;2022-12-20T04:03:16;4.90;69.80
50758;DHT22;36732;47.980;11.652;2022-12-20T04:05:42;5.00;69.80
50758;DHT22;36732;47.980;11.652;2022-12-20T04:08:07;4.90;69.80
50758;DHT22;36732;47.980;11.652;2022-12-20T04:10:33;5.00;70.00
50758;DHT22;36732;47.980;11.652;2022-12-20T04:13:22;5.00;70.00
50758;DHT22;36732;47.980;11.652;2022-12-20T04:15:48;5.00;69.90
50758;DHT22;36732;47.980;11.652;2022-12-20T04:18:13;5.00;69.80
50758;DHT22;36732;47.980;11.652;2022-12-20T04:20:39;5.00;69.80
50758;DHT22;36732;47.980;11.652;2022-12-20T04:23:05;5.00;69.90
50758;DHT22;36732;47.980;11.652;2022-12-20T04:25:30;5.00;69.80
50758;DHT22;36732;47.980;11.652;2022-12-20T04:27:56;5.00;69.80
50758;DHT22;36732;47.980;11.652;2022-12-20T04:30:22;5.00;69.70
50758;DHT22;36732;47.980;11.652;2022-12-20T04:32:47;5.00;69.80
50758;DHT22;36732;47.980;11.652;2022-12-20T04:35:13;5.00;69.80
50758;DHT22;36732;47.980;11.652;2022-12-20T04:37:39;5.00;69.80
50758;DHT22;36732;47.980;11.652;2022-12-20T04:40:05;5.00;69.70
50758;DHT22;36732;47.980;11.652;2022-12-20T04:42:31;5.00;69.80
50758;DHT22;36732;47.980;11.652;2022-12-20T04:44:57;5.00;69.80
50758;DHT22;36732;47.980;11.652;2022-12-20T04:47:22;5.00;69.80
50758;DHT22;36732;47.980;11.652;2022-12-20T04:49:48;5.00;69.70
50758;DHT22;36732;47.980;11.652;2022-12-20T04:52:14;5.00;69.70
50758;DHT22;36732;47.980;11.652;2022-12-20T04:54:58;5.00;69.70
50758;DHT22;36732;47.980;11.652;2022-12-20T04:57:24;5.00;69.80
50758;DHT22;36732;47.980;11.652;2022-12-20T04:59:49;5.00;69.80
50758;DHT22;36732;47.980;11.652;2022-12-20T05:02:15;5.00;69.90
50758;DHT22;36732;47.980;11.652;2022-12-20T05:04:41;5.00;69.90
50758;DHT22;36732;47.980;11.652;2022-12-20T05:07:07;5.00;69.80
50758;DHT22;36732;47.980;11.652;2022-12-20T05:09:33;5.00;69.70
50758;DHT22;36732;47.980;11.652;2022-12-20T05:11:58;5.10;69.80
50758;DHT22;36732;47.980;11.652;2022-12-20T05:14:24;5.00;69.80
50758;DHT22;36732;47.980;11.652;2022-12-20T05:16:50;5.00;69.70
50758;DHT22;36732;47.980;11.652;2022-12-20T05:19:15;5.00;69.80
50758;DHT22;36732;47.980;11.652;2022-12-20T05:21:41;5.00;69.70
50758;DHT22;36732;47.980;11.652;2022-12-20T05:24:26;5.10;69.80
50758;DHT22;36732;47.980;11.652;2022-12-20T05:27:10;5.10;69.80
50758;DHT22;36732;47.980;11.652;2022-12-20T05:29:35;5.10;69.80
50758;DHT22;36732;47.980;11.652;2022-12-20T05:32:01;5.10;69.80
50758;DHT22;36732;47.980;11.652;2022-12-20T05:34:27;5.10;69.70
50758;DHT22;36732;47.980;11.652;2022-12-20T05:36:53;5.10;69.70
50758;DHT22;36732;47.980;11.652;2022-12-20T05:39:18;5.10;69.80
50758;DHT22;36732;47.980;11.652;2022-12-20T05:41:44;5.10;69.70
50758;DHT22;36732;47.980;11.652;2022-12-20T05:44:10;5.10;69.70
50758;DHT22;36732;47.980;11.652;2022-12-20T05:46:35;5.10;69.70
50758;DHT22;36732;47.980;11.652;2022-12-20T05:49:01;5.10;69.80
50758;DHT22;36732;47.980;11.652;2022-12-20T05:51:27;5.10;69.70
50758;DHT22;36732;47.980;11.652;2022-12-20T05:53:53;5.10;69.60
50758;DHT22;36732;47.980;11.652;2022-12-20T05:56:19;5.10;69.60
50758;DHT22;36732;47.980;11.652;2022-12-20T05:58:45;5.10;69.70
50758;DHT22;36732;47.980;11.652;2022-12-20T06:01:10;5.10;69.60
50758;DHT22;36732;47.980;11.652;2022-12-20T06:03:37;5.10;69.70
50758;DHT22;36732;47.980;11.652;2022-12-20T06:06:04;5.10;69.80
50758;DHT22;36732;47.980;11.652;2022-12-20T06:08:31;5.10;69.80
50758;DHT22;36732;47.980;11.652;2022-12-20T06:10:56;5.10;69.80
50758;DHT22;36732;47.980;11.652;2022-12-20T06:13:22;5.10;69.80
50758;DHT22;36732;47.980;11.652;2022-12-20T06:15:48;5.10;69.80
50758;DHT22;36732;47.980;11.652;2022-12-20T06:18:14;5.20;69.90
50758;DHT22;36732;47.980;11.652;2022-12-20T06:20:39;5.10;69.80
50758;DHT22;36732;47.980;11.652;2022-12-20T06:23:05;5.10;69.80
50758;DHT22;36732;47.980;11.652;2022-12-20T06:25:32;5.10;69.80
50758;DHT22;36732;47.980;11.652;2022-12-20T06:27:57;5.20;69.80
50758;DHT22;36732;47.980;11.652;2022-12-20T06:30:23;5.20;69.90
50758;DHT22;36732;47.980;11.652;2022-12-20T06:32:49;5.20;69.90
50758;DHT22;36732;47.980;11.652;2022-12-20T06:35:15;5.20;69.90
50758;DHT22;36732;47.980;11.652;2022-12-20T06:37:41;5.20;69.90
50758;DHT22;36732;47.980;11.652;2022-12-20T06:40:09;5.10;69.80
50758;DHT22;36732;47.980;11.652;2022-12-20T06:42:36;5.10;69.80
50758;DHT22;36732;47.980;11.652;2022-12-20T06:45:03;5.10;69.80
50758;DHT22;36732;47.980;11.652;2022-12-20T06:47:29;5.20;70.00
50758;DHT22;36732;47.980;11.652;2022-12-20T06:49:54;5.10;69.90
50758;DHT22;36732;47.980;11.652;2022-12-20T06:52:20;5.20;70.00
50758;DHT22;36732;47.980;11.652;2022-12-20T06:54:46;5.10;69.90
50758;DHT22;36732;47.980;11.652;2022-12-20T06:57:12;5.10;69.90
50758;DHT22;36732;47.980;11.652;2022-12-20T06:59:38;5.10;69.90
50758;DHT22;36732;47.980;11.652;2022-12-20T07:02:03;5.10;70.00
50758;DHT22;36732;47.980;11.652;2022-12-20T07:04:29;5.20;70.00
50758;DHT22;36732;47.980;11.652;2022-12-20T07:06:55;5.10;69.90
50758;DHT22;36732;47.980;11.652;2022-12-20T07:09:21;5.20;69.90
50758;DHT22;36732;47.980;11.652;2022-12-20T07:11:48;5.20;69.90
50758;DHT22;36732;47.980;11.652;2022-12-20T07:14:13;5.20;69.80
50758;DHT22;36732;47.980;11.652;2022-12-20T07:16:39;5.10;69.80
50758;DHT22;36732;47.980;11.652;2022-12-20T07:19:12;5.10;69.80
50758;DHT22;36732;47.980;11.652;2022-12-20T07:21:38;5.20;69.90
50758;DHT22;36732;47.980;11.652;2022-12-20T07:24:04;5.10;69.90
50758;DHT22;36732;47.980;11.652;2022-12-20T07:26:31;5.20;70.00
50758;DHT22;36732;47.980;11.652;2022-12-20T07:28:56;5.20;70.00
50758;DHT22;36732;47.980;11.652;2022-12-20T07:31:22;5.20;70.00
50758;DHT22;36732;47.980;11.652;2022-12-20T07:33:48;5.20;70.10
50758;DHT22;36732;47.980;11.652;2022-12-20T07:36:14;5.20;70.20
50758;DHT22;36732;47.980;11.652;2022-12-20T07:38:40;5.20;70.20
50758;DHT22;36732;47.980;11.652;2022-12-20T07:41:10;5.20;70.30
50758;DHT22;36732;47.980;11.652;2022-12-20T07:43:37;5.20;70.20
50758;DHT22;36732;47.980;11.652;2022-12-20T07:46:04;5.20;70.30
50758;DHT22;36732;47.980;11.652;2022-12-20T07:48:31;5.20;70.30
50758;DHT22;36732;47.980;11.652;2022-12-20T07:51:02;5.20;70.30
50758;DHT22;36732;47.980;11.652;2022-12-20T07:53:33;5.20;70.30
50758;DHT22;36732;47.980;11.652;2022-12-20T07:56:00;5.20;70.30
50758;DHT22;36732;47.980;11.652;2022-12-20T07:58:29;5.20;70.30
50758;DHT22;36732;47.980;11.652;2022-12-20T08:00:56;5.20;70.30
50758;DHT22;36732;47.980;11.652;2022-12-20T08:03:26;5.30;70.30
50758;DHT22;36732;47.980;11.652;2022-12-20T08:05:55;5.20;70.20
50758;DHT22;36732;47.980;11.652;2022-12-20T08:08:23;5.30;70.30
50758;DHT22;36732;47.980;11.652;2022-12-20T08:10:49;5.30;70.30
50758;DHT22;36732;47.980;11.652;2022-12-20T08:13:15;5.30;70.20
50758;DHT22;36732;47.980;11.652;2022-12-20T08:15:42;5.30;70.20
50758;DHT22;36732;47.980;11.652;2022-12-20T08:18:07;5.30;70.20
50758;DHT22;36732;47.980;11.652;2022-12-20T08:20:33;5.30;70.20
50758;DHT22;36732;47.980;11.652;2022-12-20T08:23:01;5.30;70.20
50758;DHT22;36732;47.980;11.652;2022-12-20T08:25:27;5.30;70.50
50758;DHT22;36732;47.980;11.652;2022-12-20T08:27:53;5.30;70.50
50758;DHT22;36732;47.980;11.652;2022-12-20T08:30:19;5.30;70.40
50758;DHT22;36732;47.980;11.652;2022-12-20T08:32:45;5.30;70.40
50758;DHT22;36732;47.980;11.652;2022-12-20T08:35:10;5.30;70.40
50758;DHT22;36732;47.980;11.652;2022-12-20T08:37:37;5.30;70.40
50758;DHT22;36732;47.980;11.652;2022-12-20T08:40:03;5.30;70.40
50758;DHT22;36732;47.980;11.652;2022-12-20T08:42:29;5.30;70.40
50758;DHT22;36732;47.980;11.652;2022-12-20T08:44:55;5.30;70.50
50758;DHT22;36732;47.980;11.652;2022-12-20T08:47:21;5.30;70.50
50758;DHT22;36732;47.980;11.652;2022-12-20T08:49:46;5.30;70.50
50758;DHT22;36732;47.980;11.652;2022-12-20T08:52:12;5.30;70.40
50758;DHT22;36732;47.980;11.652;2022-12-20T08:54:38;5.30;70.40
50758;DHT22;36732;47.980;11.652;2022-12-20T08:57:03;5.30;70.40
50758;DHT22;36732;47.980;11.652;2022-12-20T08:59:29;5.30;70.30
50758;DHT22;36732;47.980;11.652;2022-12-20T09:01:55;5.30;70.30
50758;DHT22;36732;47.980;11.652;2022-12-20T09:04:20;5.30;70.30
50758;DHT22;36732;47.980;11.652;2022-12-20T09:06:46;5.30;70.30
50758;DHT22;36732;47.980;11.652;2022-12-20T09:09:12;5.40;70.40
50758;DHT22;36732;47.980;11.652;2022-12-20T09:11:38;5.40;70.40
50758;DHT22;36732;47.980;11.652;2022-12-20T09:14:04;5.40;70.50
50758;DHT22;36732;47.980;11.652;2022-12-20T09:16:31;5.40;70.50
50758;DHT22;36732;47.980;11.652;2022-12-20T09:18:59;5.40;70.60
50758;DHT22;36732;47.980;11.652;2022-12-20T09:21:25;5.40;70.50
50758;DHT22;36732;47.980;11.652;2022-12-20T09:23:53;5.40;70.60
50758;DHT22;36732;47.980;11.652;2022-12-20T09:26:20;5.40;71.10
50758;DHT22;36732;47.980;11.652;2022-12-20T09:28:47;5.40;71.00
50758;DHT22;36732;47.980;11.652;2022-12-20T09:31:15;5.40;70.90
50758;DHT22;36732;47.980;11.652;2022-12-20T09:33:43;5.40;71.10
50758;DHT22;36732;47.980;11.652;2022-12-20T09:36:13;5.40;71.00
50758;DHT22;36732;47.980;11.652;2022-12-20T09:38:43;5.40;71.20
50758;DHT22;36732;47.980;11.652;2022-12-20T09:41:33;5.40;71.30
50758;DHT22;36732;47.980;11.652;2022-12-20T09:44:33;5.40;71.60
50758;DHT22;36732;47.980;11.652;2022-12-20T09:47:04;5.40;71.80
50758;DHT22;36732;47.980;11.652;2022-12-20T09:49:47;5.40;71.60
50758;DHT22;36732;47.980;11.652;2022-12-20T10:00:48;5.50;71.80
50758;DHT22;36732;47.980;11.652;2022-12-20T10:03:25;5.50;72.20
50758;DHT22;36732;47.980;11.652;2022-12-20T10:06:52;5.50;72.10
50758;DHT22;36732;47.980;11.652;2022-12-20T10:23:18;5.50;72.40
50758;DHT22;36732;47.980;11.652;2022-12-20T10:26:11;5.60;72.30
50758;DHT22;36732;47.980;11.652;2022-12-20T10:28:38;5.60;72.10
50758;DHT22;36732;47.980;11.652;2022-12-20T10:31:13;5.60;72.10
50758;DHT22;36732;47.980;11.652;2022-12-20T10:33:41;5.60;72.20
50758;DHT22;36732;47.980;11.652;2022-12-20T10:36:36;5.60;72.10
50758;DHT22;36732;47.980;11.652;2022-12-20T10:39:08;5.60;72.50
50758;DHT22;36732;47.980;11.652;2022-12-20T10:46:50;5.60;72.50
50758;DHT22;36732;47.980;11.652;2022-12-20T10:52:02;5.60;72.70
50758;DHT22;36732;47.980;11.652;2022-12-20T10:54:46;5.70;72.70
50758;DHT22;36732;47.980;11.652;2022-12-20T10:59:44;5.70;72.60
50758;DHT22;36732;47.980;11.652;2022-12-20T11:07:35;5.70;72.90
50758;DHT22;36732;47.980;11.652;2022-12-20T11:10:26;5.70;72.70
50758;DHT22;36732;47.980;11.652;2022-12-20T11:12:54;5.70;73.10
50758;DHT22;36732;47.980;11.652;2022-12-20T11:15:24;5.80;72.90
50758;DHT22;36732;47.980;11.652;2022-12-20T11:18:14;5.80;72.90
50758;DHT22;36732;47.980;11.652;2022-12-20T11:20:56;5.80;73.10
50758;DHT22;36732;47.980;11.652;2022-12-20T11:23:57;5.80;72.90
50758;DHT22;36732;47.980;11.652;2022-12-20T11:32:57;5.80;72.90
50758;DHT22;36732;47.980;11.652;2022-12-20T11:38:29;5.80;72.60
50758;DHT22;36732;47.980;11.652;2022-12-20T11:46:59;5.80;73.10
50758;DHT22;36732;47.980;11.652;2022-12-20T11:49:51;5.90;73.10
50758;DHT22;36732;47.980;11.652;2022-12-20T11:55:18;5.90;73.40
50758;DHT22;36732;47.980;11.652;2022-12-20T11:58:03;5.90;73.60
50758;DHT22;36732;47.980;11.652;2022-12-20T12:00:35;5.90;73.50
50758;DHT22;36732;47.980;11.652;2022-12-20T12:03:11;5.90;73.40
50758;DHT22;36732;47.980;11.652;2022-12-20T12:05:44;5.90;73.50
50758;DHT22;36732;47.980;11.652;2022-12-20T12:08:23;5.90;73.30
50758;DHT22;36732;47.980;11.652;2022-12-20T12:11:07;5.90;73.30
50758;DHT22;36732;47.980;11.652;2022-12-20T12:13:39;6.00;73.40
50758;DHT22;36732;47.980;11.652;2022-12-20T12:16:25;6.00;73.10
50758;DHT22;36732;47.980;11.652;2022-12-20T12:18:53;6.00;73.20
50758;DHT22;36732;47.980;11.652;2022-12-20T12:21:24;6.00;73.20
50758;DHT22;36732;47.980;11.652;2022-12-20T12:26:32;6.00;73.30
50758;DHT22;36732;47.980;11.652;2022-12-20T12:29:02;6.00;73.10
50758;DHT22;36732;47.980;11.652;2022-12-20T12:34:40;6.00;73.10
50758;DHT22;36732;47.980;11.652;2022-12-20T12:37:29;6.00;73.20
50758;DHT22;36732;47.980;11.652;2022-12-20T12:46:21;6.10;73.60
50758;DHT22;36732;47.980;11.652;2022-12-20T12:48:57;6.10;73.20
50758;DHT22;36732;47.980;11.652;2022-12-20T12:51:34;6.10;73.10
50758;DHT22;36732;47.980;11.652;2022-12-20T12:56:50;6.10;72.90
50758;DHT22;36732;47.980;11.652;2022-12-20T13:13:00;6.20;72.70
50758;DHT22;36732;47.980;11.652;2022-12-20T13:15:45;6.20;72.50
50758;DHT22;36732;47.980;11.652;2022-12-20T13:20:37;6.20;72.50
50758;DHT22;36732;47.980;11.652;2022-12-20T13:25:34;6.30;72.70
50758;DHT22;36732;47.980;11.652;2022-12-20T13:33:22;6.30;72.50
50758;DHT22;36732;47.980;11.652;2022-12-20T13:35:55;6.30;72.50
50758;DHT22;36732;47.980;11.652;2022-12-20T13:41:29;6.30;72.80
50758;DHT22;36732;47.980;11.652;2022-12-20T13:47:05;6.40;72.60
50758;DHT22;36732;47.980;11.652;2022-12-20T13:49:39;6.40;72.40
50758;DHT22;36732;47.980;11.652;2022-12-20T13:52:19;6.40;72.50
50758;DHT22;36732;47.980;11.652;2022-12-20T13:54:49;6.40;72.30
50758;DHT22;36732;47.980;11.652;2022-12-20T13:57:26;6.40;72.40
50758;DHT22;36732;47.980;11.652;2022-12-20T13:59:56;6.40;72.50
50758;DHT22;36732;47.980;11.652;2022-12-20T14:02:28;6.40;72.60
50758;DHT22;36732;47.980;11.652;2022-12-20T14:05:01;6.40;72.50
50758;DHT22;36732;47.980;11.652;2022-12-20T14:07:31;6.40;72.50
50758;DHT22;36732;47.980;11.652;2022-12-20T14:10:00;6.40;72.60
50758;DHT22;36732;47.980;11.652;2022-12-20T14:12:28;6.40;72.50
50758;DHT22;36732;47.980;11.652;2022-12-20T14:14:56;6.40;72.60
50758;DHT22;36732;47.980;11.652;2022-12-20T14:17:27;6.50;73.40
50758;DHT22;36732;47.980;11.652;2022-12-20T14:25:53;6.50;73.20
50758;DHT22;36732;47.980;11.652;2022-12-20T14:28:24;6.50;73.10
50758;DHT22;36732;47.980;11.652;2022-12-20T14:30:56;6.50;72.80
50758;DHT22;36732;47.980;11.652;2022-12-20T14:33:39;6.50;72.50
50758;DHT22;36732;47.980;11.652;2022-12-20T14:36:25;6.50;72.30
50758;DHT22;36732;47.980;11.652;2022-12-20T14:38:52;6.50;72.30
50758;DHT22;36732;47.980;11.652;2022-12-20T14:41:37;6.50;72.10
50758;DHT22;36732;47.980;11.652;2022-12-20T14:44:20;6.50;72.20
50758;DHT22;36732;47.980;11.652;2022-12-20T14:46:51;6.50;72.00
50758;DHT22;36732;47.980;11.652;2022-12-20T14:49:35;6.50;72.20
50758;DHT22;36732;47.980;11.652;2022-12-20T14:52:35;6.50;72.30
50758;DHT22;36732;47.980;11.652;2022-12-20T14:57:49;6.60;71.90
50758;DHT22;36732;47.980;11.652;2022-12-20T15:16:24;6.50;71.70
50758;DHT22;36732;47.980;11.652;2022-12-20T15:19:01;6.50;71.70
50758;DHT22;36732;47.980;11.652;2022-12-20T15:21:36;6.50;71.70
50758;DHT22;36732;47.980;11.652;2022-12-20T15:24:26;6.50;71.60
50758;DHT22;36732;47.980;11.652;2022-12-20T15:26:53;6.50;71.80
50758;DHT22;36732;47.980;11.652;2022-12-20T15:29:27;6.50;71.60
50758;DHT22;36732;47.980;11.652;2022-12-20T15:31:58;6.50;71.60
50758;DHT22;36732;47.980;11.652;2022-12-20T15:34:36;6.50;71.80
50758;DHT22;36732;47.980;11.652;2022-12-20T15:37:03;6.50;71.40
50758;DHT22;36732;47.980;11.652;2022-12-20T15:39:30;6.50;71.20
50758;DHT22;36732;47.980;11.652;2022-12-20T15:42:01;6.50;71.30
50758;DHT22;36732;47.980;11.652;2022-12-20T15:44:29;6.50;71.30
50758;DHT22;36732;47.980;11.652;2022-12-20T15:46:55;6.50;71.30
50758;DHT22;36732;47.980;11.652;2022-12-20T15:49:29;6.50;71.20
50758;DHT22;36732;47.980;11.652;2022-12-20T15:51:56;6.40;71.30
50758;DHT22;36732;47.980;11.652;2022-12-20T15:57:02;6.40;71.40
50758;DHT22;36732;47.980;11.652;2022-12-20T15:59:32;6.40;71.30
50758;DHT22;36732;47.980;11.652;2022-12-20T16:01:58;6.40;71.30
50758;DHT22;36732;47.980;11.652;2022-12-20T16:04:24;6.40;71.30
50758;DHT22;36732;47.980;11.652;2022-12-20T16:06:50;6.40;71.20
50758;DHT22;36732;47.980;11.652;2022-12-20T16:09:20;6.40;71.30
50758;DHT22;36732;47.980;11.652;2022-12-20T16:11:46;6.40;71.40
50758;DHT22;36732;47.980;11.652;2022-12-20T16:14:15;6.40;71.30
50758;DHT22;36732;47.980;11.652;2022-12-20T16:16:41;6.40;71.30
50758;DHT22;36732;47.980;11.652;2022-12-20T16:19:09;6.40;71.40
50758;DHT22;36732;47.980;11.652;2022-12-20T16:21:44;6.40;71.30
50758;DHT22;36732;47.980;11.652;2022-12-20T16:24:13;6.40;71.40
50758;DHT22;36732;47.980;11.652;2022-12-20T16:26:39;6.40;71.30
50758;DHT22;36732;47.980;11.652;2022-12-20T16:29:05;6.40;71.30
50758;DHT22;36732;47.980;11.652;2022-12-20T16:31:37;6.40;71.30
50758;DHT22;36732;47.980;11.652;2022-12-20T16:34:08;6.30;71.30
50758;DHT22;36732;47.980;11.652;2022-12-20T16:36:37;6.30;71.40
50758;DHT22;36732;47.980;11.652;2022-12-20T16:39:03;6.40;71.30
50758;DHT22;36732;47.980;11.652;2022-12-20T16:41:34;6.30;71.10
50758;DHT22;36732;47.980;11.652;2022-12-20T16:44:02;6.40;71.20
50758;DHT22;36732;47.980;11.652;2022-12-20T16:46:30;6.30;71.30
50758;DHT22;36732;47.980;11.652;2022-12-20T16:48:58;6.30;71.30
50758;DHT22;36732;47.980;11.652;2022-12-20T16:51:32;6.30;71.30
50758;DHT22;36732;47.980;11.652;2022-12-20T16:54:02;6.30;72.00
50758;DHT22;36732;47.980;11.652;2022-12-20T16:56:30;6.30;71.40
50758;DHT22;36732;47.980;11.652;2022-12-20T16:58:56;6.30;71.40
50758;DHT22;36732;47.980;11.652;2022-12-20T17:01:27;6.30;71.30
50758;DHT22;36732;47.980;11.652;2022-12-20T17:03:55;6.30;71.40
50758;DHT22;36732;47.980;11.652;2022-12-20T17:06:21;6.30;71.30
50758;DHT22;36732;47.980;11.652;2022-12-20T17:08:47;6.30;71.30
50758;DHT22;36732;47.980;11.652;2022-12-20T17:13:45;6.30;71.20
50758;DHT22;36732;47.980;11.652;2022-12-20T17:16:13;6.30;71.20
50758;DHT22;36732;47.980;11.652;2022-12-20T17:18:44;6.30;71.20
50758;DHT22;36732;47.980;11.652;2022-12-20T17:23:51;6.30;71.20
50758;DHT22;36732;47.980;11.652;2022-12-20T17:26:22;6.30;71.20
50758;DHT22;36732;47.980;11.652;2022-12-20T17:28:51;6.30;71.20
50758;DHT22;36732;47.980;11.652;2022-12-20T17:33:52;6.30;71.10
50758;DHT22;36732;47.980;11.652;2022-12-20T17:36:19;6.30;71.10
50758;DHT22;36732;47.980;11.652;2022-12-20T17:38:44;6.30;71.10
50758;DHT22;36732;47.980;11.652;2022-12-20T17:41:21;6.30;71.10
50758;DHT22;36732;47.980;11.652;2022-12-20T17:43:49;6.30;71.70
50758;DHT22;36732;47.980;11.652;2022-12-20T17:46:15;6.30;71.00
50758;DHT22;36732;47.980;11.652;2022-12-20T17:48:41;6.30;71.00
50758;DHT22;36732;47.980;11.652;2022-12-20T17:51:27;6.20;70.80
50758;DHT22;36732;47.980;11.652;2022-12-20T17:53:58;6.30;71.10
50758;DHT22;36732;47.980;11.652;2022-12-20T17:56:35;6.30;71.60
50758;DHT22;36732;47.980;11.652;2022-12-20T17:59:02;6.20;71.00
50758;DHT22;36732;47.980;11.652;2022-12-20T18:01:33;6.20;70.90
50758;DHT22;36732;47.980;11.652;2022-12-20T18:04:03;6.20;70.90
50758;DHT22;36732;47.980;11.652;2022-12-20T18:06:31;6.20;70.90
50758;DHT22;36732;47.980;11.652;2022-12-20T18:08:58;6.30;71.00
50758;DHT22;36732;47.980;11.652;2022-12-20T18:11:26;6.20;70.90
50758;DHT22;36732;47.980;11.652;2022-12-20T18:13:56;6.20;71.00
50758;DHT22;36732;47.980;11.652;2022-12-20T18:16:24;6.20;71.00
50758;DHT22;36732;47.980;11.652;2022-12-20T18:18:52;6.20;71.00
50758;DHT22;36732;47.980;11.652;2022-12-20T18:21:18;6.20;71.00